Aviation Digital Data Service (ADDS)

Output produced by METARs form (1412 UTC 24 April 2014)
found at http://aviationweather.gov/adds/metars/
 
KAEX 241136Z 2412/2512 VRB04KT P6SM OVC009 
     FM241400 18008KT P6SM BKN018 
     FM241700 19014G20KT P6SM SCT025 
     FM250100 20010KT P6SM SCT030 
     FM250700 VRB03KT P6SM BKN020